createdAt,value
2023-02-09T00:01:51.764Z,23.35
2023-02-09T00:04:20.385Z,23.15
2023-02-09T00:06:49.115Z,19.40
2023-02-09T00:09:18.390Z,22.02
2023-02-09T00:12:10.250Z,19.48
2023-02-09T00:14:39.019Z,21.73
2023-02-09T00:17:10.151Z,22.58
2023-02-09T00:19:38.771Z,19.33
2023-02-09T00:22:07.260Z,24.83
2023-02-09T00:24:35.907Z,19.80
2023-02-09T00:27:04.910Z,27.33
2023-02-09T00:29:33.599Z,21.25
2023-02-09T00:32:02.297Z,26.13
2023-02-09T00:34:32.495Z,23.38
2023-02-09T00:37:01.100Z,20.08
2023-02-09T00:39:30.331Z,21.20
2023-02-09T00:42:08.063Z,19.60
2023-02-09T00:44:38.858Z,19.65
2023-02-09T00:47:09.136Z,21.13
2023-02-09T00:49:40.329Z,23.60
2023-02-09T00:52:10.096Z,20.48
2023-02-09T00:54:39.322Z,22.85
2023-02-09T00:57:08.091Z,18.00
2023-02-09T00:59:40.773Z,23.52
2023-02-09T01:02:09.586Z,25.60
2023-02-09T01:04:41.041Z,23.00
2023-02-09T01:07:09.781Z,20.48
2023-02-09T01:09:38.619Z,20.38
2023-02-09T01:12:08.178Z,22.00
2023-02-09T01:14:38.515Z,23.17
2023-02-09T01:17:07.598Z,24.52
2023-02-09T01:19:36.488Z,19.35
2023-02-09T01:22:07.209Z,22.13
2023-02-09T01:24:36.026Z,18.45
2023-02-09T01:27:05.567Z,24.63
2023-02-09T01:29:34.206Z,17.85
2023-02-09T01:32:03.103Z,18.33
2023-02-09T01:34:32.498Z,19.33
2023-02-09T01:37:01.554Z,23.23
2023-02-09T01:39:32.329Z,20.50
2023-02-09T01:42:00.926Z,23.35
2023-02-09T01:45:18.066Z,19.25
2023-02-09T01:47:51.918Z,19.63
2023-02-09T01:50:21.195Z,24.15
2023-02-09T01:52:50.949Z,19.83
2023-02-09T01:55:25.591Z,19.90
2023-02-09T01:57:59.591Z,30.27
2023-02-09T02:00:29.070Z,18.20
2023-02-09T02:03:02.387Z,23.25
2023-02-09T02:05:37.441Z,21.83
2023-02-09T02:10:41.956Z,17.13
2023-02-09T02:13:11.287Z,22.30
2023-02-09T02:15:52.723Z,20.65
2023-02-09T02:18:39.709Z,21.38
2023-02-09T02:21:45.228Z,20.92
2023-02-09T02:25:02.060Z,19.17
2023-02-09T02:30:39.238Z,20.77
2023-02-09T02:33:30.353Z,18.75
2023-02-09T02:36:08.946Z,20.77
2023-02-09T02:38:41.252Z,19.27
2023-02-09T02:41:17.830Z,18.17
2023-02-09T02:43:56.727Z,19.02
2023-02-09T02:46:34.878Z,23.45
2023-02-09T02:49:15.179Z,21.90
2023-02-09T02:51:47.065Z,28.55
2023-02-09T02:54:22.122Z,20.45
2023-02-09T02:56:56.622Z,22.33
2023-02-09T02:59:39.136Z,21.77
2023-02-09T03:02:12.531Z,21.17
2023-02-09T03:04:44.743Z,21.17
2023-02-09T03:07:13.496Z,20.50
2023-02-09T03:09:51.205Z,19.50
2023-02-09T03:12:33.610Z,20.33
2023-02-09T03:15:27.268Z,19.05
2023-02-09T03:18:08.095Z,18.58
2023-02-09T03:20:48.209Z,20.48
2023-02-09T03:23:28.965Z,20.48
2023-02-09T03:25:59.093Z,19.85
2023-02-09T03:28:35.017Z,21.55
2023-02-09T03:31:06.569Z,23.52
2023-02-09T03:33:38.196Z,21.75
2023-02-09T03:36:15.644Z,22.20
2023-02-09T03:38:44.332Z,22.55
2023-02-09T03:41:13.052Z,15.73
2023-02-09T03:43:59.221Z,21.77
2023-02-09T03:46:29.940Z,21.05
2023-02-09T03:48:58.817Z,23.70
2023-02-09T03:51:29.083Z,20.48
2023-02-09T03:53:58.009Z,23.02
2023-02-09T03:56:26.664Z,21.83
2023-02-09T03:58:56.330Z,18.55
2023-02-09T04:01:24.969Z,29.67
2023-02-09T04:03:53.906Z,22.92
2023-02-09T04:06:22.714Z,19.23
2023-02-09T04:08:52.634Z,19.65
2023-02-09T04:11:23.231Z,21.67
2023-02-09T04:13:52.079Z,19.17
2023-02-09T04:16:20.829Z,17.33
2023-02-09T04:18:49.733Z,24.85
2023-02-09T04:21:18.662Z,19.55
2023-02-09T04:23:47.646Z,21.02
2023-02-09T04:26:18.530Z,20.25
2023-02-09T04:28:47.564Z,24.02
2023-02-09T04:31:16.541Z,23.15
2023-02-09T04:33:47.631Z,21.58
2023-02-09T04:36:16.385Z,20.08
2023-02-09T04:38:45.040Z,19.70
2023-02-09T04:41:13.945Z,23.92
2023-02-09T04:43:50.824Z,30.67
2023-02-09T04:46:20.248Z,24.77
2023-02-09T04:48:49.419Z,19.92
2023-02-09T04:51:18.198Z,21.67
2023-02-09T04:53:47.094Z,22.42
2023-02-09T04:56:17.768Z,19.45
2023-02-09T04:59:05.581Z,21.63
2023-02-09T05:01:34.537Z,24.70
2023-02-09T05:04:03.586Z,19.88
2023-02-09T05:06:32.365Z,19.45
2023-02-09T05:09:01.009Z,17.85
2023-02-09T05:11:29.630Z,23.48
2023-02-09T05:14:00.570Z,22.00
2023-02-09T05:16:30.558Z,21.30
2023-02-09T05:18:59.379Z,17.27
2023-02-09T05:21:28.025Z,18.35
2023-02-09T05:23:56.770Z,21.30
2023-02-09T05:26:25.412Z,19.05
2023-02-09T05:28:54.450Z,17.60
2023-02-09T05:31:24.504Z,20.95
2023-02-09T05:33:53.205Z,19.73
2023-02-09T05:36:22.034Z,16.27
2023-02-09T05:38:50.713Z,22.77
2023-02-09T05:41:33.190Z,22.85
2023-02-09T05:44:03.513Z,20.75
2023-02-09T05:46:33.738Z,20.45
2023-02-09T05:49:03.178Z,19.80
2023-02-09T05:51:31.863Z,21.65
2023-02-09T05:54:00.864Z,19.83
2023-02-09T05:56:31.914Z,21.55
2023-02-09T05:59:00.880Z,21.25
2023-02-09T06:01:30.288Z,20.23
2023-02-09T06:04:00.391Z,23.70
2023-02-09T06:06:29.062Z,19.88
2023-02-09T06:08:57.589Z,20.05
2023-02-09T06:11:26.754Z,17.63
2023-02-09T06:13:55.316Z,18.15
2023-02-09T06:16:24.616Z,18.35
2023-02-09T06:18:53.423Z,20.40
2023-02-09T06:21:26.707Z,16.98
2023-02-09T06:23:55.328Z,23.58
2023-02-09T06:26:25.871Z,23.60
2023-02-09T06:28:56.854Z,25.55
2023-02-09T06:31:25.827Z,23.63
2023-02-09T06:33:54.557Z,19.45
2023-02-09T06:36:24.681Z,18.85
2023-02-09T06:38:53.496Z,26.27
2023-02-09T06:41:22.568Z,21.90
2023-02-09T06:43:51.175Z,21.73
2023-02-09T06:46:19.876Z,22.45
2023-02-09T06:48:48.967Z,21.23
2023-02-09T06:51:18.808Z,15.63
2023-02-09T06:53:48.955Z,24.55
2023-02-09T06:56:17.522Z,20.30
2023-02-09T06:58:46.056Z,18.75
2023-02-09T07:01:16.870Z,20.20
2023-02-09T07:03:46.279Z,19.83
2023-02-09T07:06:18.414Z,16.98
2023-02-09T07:08:50.287Z,21.05
2023-02-09T07:11:20.609Z,20.10
2023-02-09T07:13:50.131Z,18.13
2023-02-09T07:16:19.089Z,23.58
2023-02-09T07:18:48.092Z,19.08
2023-02-09T07:21:20.166Z,21.17
2023-02-09T07:23:50.952Z,24.42
2023-02-09T07:26:20.591Z,16.65
2023-02-09T07:28:49.128Z,20.25
2023-02-09T07:31:18.818Z,20.67
2023-02-09T07:33:50.404Z,18.42
2023-02-09T07:36:19.562Z,20.95
2023-02-09T07:38:50.277Z,18.77
2023-02-09T07:41:22.242Z,25.10
2023-02-09T07:43:51.051Z,19.40
2023-02-09T07:46:23.137Z,19.63
2023-02-09T07:48:52.218Z,18.80
2023-02-09T07:51:25.789Z,21.05
2023-02-09T07:53:57.635Z,25.33
2023-02-09T07:56:27.010Z,20.38
2023-02-09T07:58:57.277Z,23.05
2023-02-09T08:01:26.906Z,24.27
2023-02-09T08:03:55.665Z,19.15
2023-02-09T08:06:41.347Z,19.25
2023-02-09T08:09:14.435Z,24.80
2023-02-09T08:11:49.967Z,19.27
2023-02-09T08:14:22.366Z,22.65
2023-02-09T08:17:13.579Z,25.67
2023-02-09T08:19:43.286Z,21.75
2023-02-09T08:22:12.380Z,17.67
2023-02-09T08:24:43.815Z,19.95
2023-02-09T08:27:15.939Z,21.60
2023-02-09T08:29:46.542Z,17.67
2023-02-09T08:32:16.692Z,23.65
2023-02-09T08:34:47.093Z,20.67
2023-02-09T08:37:19.456Z,21.27
2023-02-09T08:39:53.762Z,19.13
2023-02-09T08:42:22.685Z,25.30
2023-02-09T08:44:51.728Z,20.60
2023-02-09T08:47:23.089Z,23.52
2023-02-09T08:49:52.355Z,20.75
2023-02-09T08:52:21.922Z,31.90
2023-02-09T08:54:54.221Z,24.92
2023-02-09T08:57:31.917Z,20.70
2023-02-09T09:00:08.042Z,23.02
2023-02-09T09:02:36.750Z,26.65
2023-02-09T09:05:06.372Z,21.70
2023-02-09T09:07:35.638Z,23.75
2023-02-09T09:10:08.942Z,23.20
2023-02-09T09:12:38.585Z,26.45
2023-02-09T09:15:08.450Z,23.83
2023-02-09T09:17:37.389Z,20.50
2023-02-09T09:20:07.109Z,19.63
2023-02-09T09:22:36.071Z,24.83
2023-02-09T09:25:07.356Z,23.40
2023-02-09T09:27:36.487Z,24.27
2023-02-09T09:30:06.634Z,20.67
2023-02-09T09:32:35.347Z,20.77
2023-02-09T09:35:04.099Z,23.77
2023-02-09T09:37:33.795Z,23.45
2023-02-09T09:40:02.506Z,19.27
2023-02-09T09:42:37.092Z,22.67
2023-02-09T09:45:09.076Z,22.85
2023-02-09T09:47:40.830Z,25.88
2023-02-09T09:50:18.086Z,21.15
2023-02-09T09:52:51.424Z,19.90
2023-02-09T09:55:26.655Z,22.88
2023-02-09T09:58:00.977Z,21.60
2023-02-09T10:00:36.360Z,23.50
2023-02-09T10:03:05.614Z,22.52
2023-02-09T10:05:44.463Z,23.00
2023-02-09T10:08:24.588Z,24.60
2023-02-09T10:10:59.622Z,23.65
2023-02-09T10:13:36.131Z,23.38
2023-02-09T10:16:06.347Z,21.77
2023-02-09T10:18:38.375Z,25.13
2023-02-09T10:21:10.243Z,22.77
2023-02-09T10:23:42.733Z,24.20
2023-02-09T10:26:31.109Z,28.48
2023-02-09T10:29:22.269Z,24.98
2023-02-09T10:31:56.726Z,26.08
2023-02-09T10:34:33.200Z,28.95
2023-02-09T10:37:27.560Z,28.30
2023-02-09T10:40:07.343Z,23.25
2023-02-09T10:42:38.649Z,22.63
2023-02-09T10:45:17.364Z,26.30
2023-02-09T10:48:00.224Z,26.40
2023-02-09T10:50:29.401Z,25.25
2023-02-09T10:53:01.622Z,32.55
2023-02-09T10:55:37.917Z,28.02
2023-02-09T10:58:16.646Z,27.05
2023-02-09T11:00:53.329Z,26.77
2023-02-09T11:03:26.599Z,24.80
2023-02-09T11:06:05.234Z,30.05
2023-02-09T11:08:46.918Z,26.92
2023-02-09T11:11:29.539Z,26.63
2023-02-09T11:13:59.072Z,22.98
2023-02-09T11:16:55.151Z,22.55
2023-02-09T11:22:55.003Z,23.30
2023-02-09T11:25:28.815Z,27.42
2023-02-09T11:28:29.537Z,27.05
2023-02-09T11:31:51.275Z,25.08
2023-02-09T11:35:00.774Z,25.30
2023-02-09T11:37:41.715Z,25.85
2023-02-09T11:40:25.542Z,26.73
2023-02-09T11:43:09.378Z,30.17
2023-02-09T11:45:45.691Z,29.30
2023-02-09T11:48:24.160Z,31.08
2023-02-09T11:51:05.779Z,28.17
2023-02-09T11:53:45.322Z,29.17
2023-02-09T11:56:17.102Z,27.60
2023-02-09T11:58:53.411Z,32.25
2023-02-09T12:01:38.170Z,29.73
2023-02-09T12:04:19.081Z,33.92
2023-02-09T12:06:52.719Z,32.95
2023-02-09T12:09:37.660Z,27.85
2023-02-09T12:12:20.040Z,30.87
2023-02-09T12:15:15.150Z,26.05
2023-02-09T12:17:49.780Z,28.75
2023-02-09T12:20:32.775Z,28.90
2023-02-09T12:23:07.711Z,29.38
2023-02-09T12:25:51.706Z,28.35
2023-02-09T12:28:42.717Z,30.52
2023-02-09T12:31:27.040Z,35.08
2023-02-09T12:34:29.711Z,28.38
2023-02-09T12:37:28.438Z,30.83
2023-02-09T12:40:23.907Z,30.42
2023-02-09T12:43:26.185Z,26.83
2023-02-09T12:46:48.768Z,35.67
2023-02-09T12:49:32.336Z,35.20
2023-02-09T12:52:17.596Z,35.47
2023-02-09T12:54:53.198Z,29.60
2023-02-09T12:57:55.362Z,27.65
2023-02-09T13:00:44.324Z,29.42
2023-02-09T13:03:20.709Z,30.77
2023-02-09T13:05:50.716Z,30.55
2023-02-09T13:08:47.240Z,33.70
2023-02-09T13:13:57.519Z,31.33
2023-02-09T13:16:48.199Z,30.17
2023-02-09T13:19:48.017Z,30.95
2023-02-09T13:22:40.833Z,31.13
2023-02-09T13:25:21.570Z,32.72
2023-02-09T13:27:51.429Z,30.10
2023-02-09T13:30:29.505Z,32.10
2023-02-09T13:33:09.122Z,34.15
2023-02-09T13:35:52.279Z,35.65
2023-02-09T13:38:23.162Z,33.05
2023-02-09T13:40:53.213Z,33.55
2023-02-09T13:43:32.518Z,29.92
2023-02-09T13:46:03.151Z,37.47
2023-02-09T13:48:37.625Z,33.60
2023-02-09T13:51:17.054Z,33.13
2023-02-09T13:53:58.439Z,37.22
2023-02-09T13:56:29.004Z,29.52
2023-02-09T13:58:58.360Z,37.13
2023-02-09T14:01:32.071Z,32.65
2023-02-09T14:04:08.396Z,34.35
2023-02-09T14:06:40.481Z,35.45
2023-02-09T14:09:17.581Z,33.47
2023-02-09T14:11:53.307Z,35.03
2023-02-09T14:14:26.874Z,37.53
2023-02-09T14:17:24.313Z,32.67
2023-02-09T14:19:54.480Z,37.45
2023-02-09T14:22:33.761Z,37.60
2023-02-09T14:25:18.332Z,35.78
2023-02-09T14:27:50.477Z,40.47
2023-02-09T14:30:22.180Z,32.00
2023-02-09T14:32:55.461Z,37.63
2023-02-09T14:35:26.827Z,33.67
2023-02-09T14:37:59.658Z,39.67
2023-02-09T14:40:34.269Z,34.95
2023-02-09T14:43:24.871Z,40.10
2023-02-09T14:46:02.365Z,36.53
2023-02-09T14:48:32.244Z,38.08
2023-02-09T14:51:03.474Z,37.75
2023-02-09T14:53:34.306Z,44.35
2023-02-09T14:56:03.271Z,38.08
2023-02-09T14:58:35.424Z,40.08
2023-02-09T15:01:04.650Z,42.28
2023-02-09T15:03:34.629Z,41.90
2023-02-09T15:06:05.386Z,45.15
2023-02-09T15:08:39.042Z,40.38
2023-02-09T15:11:25.747Z,45.20
2023-02-09T15:14:04.045Z,47.85
2023-02-09T15:16:33.296Z,46.95
2023-02-09T15:19:04.836Z,44.83
2023-02-09T15:21:33.664Z,40.70
2023-02-09T15:24:02.633Z,39.13
2023-02-09T15:26:34.136Z,43.95
2023-02-09T15:29:08.195Z,45.92
2023-02-09T15:31:36.916Z,46.72
2023-02-09T15:34:06.109Z,48.90
2023-02-09T15:36:35.395Z,57.65
2023-02-09T15:39:05.282Z,49.60
2023-02-09T15:41:51.367Z,44.65
2023-02-09T15:44:39.519Z,44.75
2023-02-09T15:47:25.403Z,49.75
2023-02-09T15:49:56.253Z,54.78
2023-02-09T15:52:24.986Z,48.72
2023-02-09T15:54:54.658Z,45.33
2023-02-09T15:57:25.256Z,52.28
2023-02-09T15:59:55.390Z,47.88
2023-02-09T16:02:24.251Z,47.55
2023-02-09T16:04:53.147Z,45.53
2023-02-09T16:07:25.964Z,53.03
2023-02-09T16:09:54.751Z,52.35
2023-02-09T16:12:23.540Z,51.90
2023-02-09T16:14:53.328Z,52.17
2023-02-09T16:17:25.058Z,48.28
2023-02-09T16:19:53.776Z,51.53
2023-02-09T16:22:25.164Z,58.00
2023-02-09T16:24:54.017Z,47.47
2023-02-09T16:27:28.481Z,51.33
2023-02-09T16:30:00.644Z,54.03
2023-02-09T16:32:30.825Z,51.00
2023-02-09T16:35:15.910Z,65.25
2023-02-09T16:37:48.551Z,53.20
2023-02-09T16:40:28.490Z,58.33
2023-02-09T16:42:58.449Z,55.28
2023-02-09T16:45:44.716Z,60.38
2023-02-09T16:48:25.292Z,54.85
2023-02-09T16:50:55.806Z,57.45
2023-02-09T16:53:33.128Z,69.63
2023-02-09T16:56:04.989Z,60.78
2023-02-09T16:58:34.174Z,57.90
2023-02-09T17:01:03.594Z,61.80
2023-02-09T17:03:39.448Z,84.93
2023-02-09T17:06:18.022Z,59.05
2023-02-09T17:08:47.586Z,57.40
2023-02-09T17:11:19.125Z,64.15
2023-02-09T17:13:48.992Z,61.45
2023-02-09T17:16:22.364Z,56.10
2023-02-09T17:19:03.837Z,65.25
2023-02-09T17:21:36.485Z,58.33
2023-02-09T17:24:12.862Z,58.00
2023-02-09T17:26:42.079Z,61.38
2023-02-09T17:29:12.331Z,64.32
2023-02-09T17:31:53.344Z,63.95
2023-02-09T17:34:27.349Z,68.45
2023-02-09T17:36:55.970Z,66.10
2023-02-09T17:39:25.104Z,75.90
2023-02-09T17:41:54.460Z,61.53
2023-02-09T17:44:44.648Z,71.15
2023-02-09T17:47:17.101Z,64.05
2023-02-09T17:49:47.413Z,78.13
2023-02-09T17:52:21.102Z,77.28
2023-02-09T17:54:51.125Z,75.68
2023-02-09T17:57:21.106Z,80.80
2023-02-09T17:59:50.596Z,73.43
2023-02-09T18:02:20.584Z,83.82
2023-02-09T18:04:50.701Z,77.05
2023-02-09T18:07:20.882Z,79.03
2023-02-09T18:09:49.681Z,79.10
2023-02-09T18:12:24.699Z,81.68
2023-02-09T18:14:53.833Z,70.82
2023-02-09T18:17:22.559Z,75.72
2023-02-09T18:19:52.495Z,86.93
2023-02-09T18:22:21.211Z,82.47
2023-02-09T18:24:50.043Z,92.30
2023-02-09T18:27:21.836Z,98.63
2023-02-09T18:29:50.554Z,88.85
2023-02-09T18:32:21.045Z,97.35
2023-02-09T18:34:51.746Z,87.07
2023-02-09T18:37:20.441Z,92.53
2023-02-09T18:39:48.927Z,86.38
2023-02-09T18:42:17.732Z,87.00
2023-02-09T18:44:46.809Z,91.55
2023-02-09T18:47:16.233Z,88.10
2023-02-09T18:49:44.991Z,96.03
2023-02-09T18:52:18.920Z,97.82
2023-02-09T18:54:48.335Z,84.35
2023-02-09T18:57:16.964Z,91.65
2023-02-09T18:59:47.914Z,97.18
2023-02-09T19:02:17.465Z,92.00
2023-02-09T19:04:46.234Z,103.47
2023-02-09T19:07:17.112Z,107.80
2023-02-09T19:09:46.901Z,103.40
2023-02-09T19:12:15.979Z,111.82
2023-02-09T19:14:47.732Z,117.05
2023-02-09T19:17:19.121Z,108.38
2023-02-09T19:19:48.694Z,94.85
2023-02-09T19:22:22.395Z,94.85
2023-02-09T19:24:53.329Z,100.15
2023-02-09T19:27:22.122Z,94.45
2023-02-09T19:29:55.702Z,100.60
2023-02-09T19:32:26.057Z,108.28
2023-02-09T19:34:55.160Z,109.13
2023-02-09T19:37:25.707Z,114.15
2023-02-09T19:40:04.231Z,106.65
2023-02-09T19:42:33.692Z,115.70
2023-02-09T19:45:02.203Z,109.55
2023-02-09T19:47:30.962Z,105.95
2023-02-09T19:50:00.685Z,120.15
2023-02-09T19:52:49.254Z,109.88
2023-02-09T19:55:18.114Z,101.80
2023-02-09T19:57:47.318Z,99.07
2023-02-09T20:00:19.806Z,100.07
2023-02-09T20:02:49.413Z,102.72
2023-02-09T20:05:19.452Z,120.80
2023-02-09T20:07:49.867Z,102.38
2023-02-09T20:10:19.205Z,113.43
2023-02-09T20:12:47.879Z,115.40
2023-02-09T20:15:17.143Z,108.13
2023-02-09T20:20:14.636Z,99.78
2023-02-09T20:22:43.413Z,119.90
2023-02-09T20:25:15.480Z,107.78
2023-02-09T20:27:44.398Z,121.65
2023-02-09T20:30:14.595Z,113.50
2023-02-09T20:32:43.522Z,113.35
2023-02-09T20:35:13.620Z,96.90
2023-02-09T20:37:42.370Z,113.00
2023-02-09T20:40:13.637Z,104.80
2023-02-09T20:42:59.926Z,95.93
2023-02-09T20:45:45.788Z,107.95
2023-02-09T20:48:15.049Z,115.68
2023-02-09T20:50:45.465Z,139.20
2023-02-09T20:53:14.814Z,118.63
2023-02-09T20:55:46.228Z,119.78
2023-02-09T20:58:15.651Z,125.22
2023-02-09T21:00:44.983Z,119.20
2023-02-09T21:03:14.115Z,114.45
2023-02-09T21:05:45.169Z,114.90
2023-02-09T21:08:13.944Z,99.55
2023-02-09T21:10:47.458Z,103.57
2023-02-09T21:13:16.813Z,95.75
2023-02-09T21:15:45.325Z,99.13
2023-02-09T21:18:14.298Z,103.38
2023-02-09T21:20:43.227Z,104.18
2023-02-09T21:23:11.947Z,100.68
2023-02-09T21:25:40.733Z,96.15
2023-02-09T21:28:11.344Z,109.30
2023-02-09T21:30:44.493Z,97.35
2023-02-09T21:33:14.903Z,102.82
2023-02-09T21:35:44.345Z,90.13
2023-02-09T21:38:13.615Z,101.57
2023-02-09T21:40:42.743Z,103.72
2023-02-09T21:43:13.376Z,97.78
2023-02-09T21:45:42.410Z,102.10
2023-02-09T21:48:13.046Z,94.25
2023-02-09T21:50:42.080Z,108.40
2023-02-09T21:53:10.757Z,99.30
2023-02-09T21:55:39.438Z,94.38
2023-02-09T21:58:09.130Z,95.60
2023-02-09T22:00:39.065Z,110.30
2023-02-09T22:03:07.682Z,108.13
2023-02-09T22:05:36.331Z,103.28
2023-02-09T22:08:05.116Z,96.00
2023-02-09T22:10:33.900Z,98.93
2023-02-09T22:13:08.458Z,91.82
2023-02-09T22:15:41.646Z,94.68
2023-02-09T22:18:13.572Z,91.38
2023-02-09T22:20:42.790Z,84.00
2023-02-09T22:23:11.503Z,83.80
2023-02-09T22:25:40.773Z,103.25
2023-02-09T22:28:09.627Z,94.35
2023-02-09T22:30:39.676Z,86.53
2023-02-09T22:33:10.091Z,87.55
2023-02-09T22:35:43.877Z,82.72
2023-02-09T22:38:12.689Z,89.43
2023-02-09T22:40:41.516Z,77.55
2023-02-09T22:43:10.218Z,88.45
2023-02-09T22:45:40.972Z,91.57
2023-02-09T22:48:11.942Z,80.65
2023-02-09T22:50:40.559Z,88.03
2023-02-09T22:53:09.139Z,79.55
2023-02-09T22:55:37.636Z,95.20
2023-02-09T22:58:06.191Z,114.90
2023-02-09T23:00:34.715Z,88.78
2023-02-09T23:03:04.793Z,84.35
2023-02-09T23:05:33.435Z,88.95
2023-02-09T23:08:01.920Z,84.53
2023-02-09T23:10:32.302Z,78.13
2023-02-09T23:13:01.805Z,84.25
2023-02-09T23:15:30.383Z,84.38
2023-02-09T23:17:59.199Z,83.20
2023-02-09T23:20:30.618Z,78.18
2023-02-09T23:23:01.450Z,77.55
2023-02-09T23:25:30.085Z,86.85
2023-02-09T23:27:58.882Z,87.13
2023-02-09T23:30:28.551Z,83.60
2023-02-09T23:32:57.220Z,83.78
2023-02-09T23:35:26.009Z,90.65
2023-02-09T23:37:58.053Z,88.50
2023-02-09T23:40:26.728Z,80.97
2023-02-09T23:42:55.212Z,85.28
2023-02-09T23:45:24.555Z,74.50
2023-02-09T23:47:53.163Z,84.47
2023-02-09T23:50:21.593Z,79.28
2023-02-09T23:52:50.298Z,99.80
2023-02-09T23:55:20.417Z,85.03
2023-02-09T23:57:49.044Z,88.75
